Terminal Aerodrome Forecast
Issued by NWS Duluth, MN

Home | Current Version | Previous Version | Text Only | Print | Product List | Glossary On
Versions: 1 2 3 4 5 6 7 8 9 10 11 12 13 14 15 16 17 18 19 20 21 22 23 24 25 26 27 28 29 30 31 32 33 34 35 36 37 38 39
851
FTUS43 KDLH 081319 AAA
TAFDLH
TAF AMD
KDLH 081319Z 0813/0912 33015G26KT 5SM -SN BLSN SCT015 OVC035
      TEMPO 0814/0818 1 1/2SM -SN BLSN BKN018
     FM090000 34012G22KT P6SM BKN030
     FM090800 34010G20KT P6SM SCT030=

USA.gov is the U.S. government's official web portal to all federal, state and local government web resources and services.